createdAt,value
2022-11-19T00:01:34.455Z,37.30
2022-11-19T00:04:01.544Z,45.13
2022-11-19T00:06:28.633Z,35.93
2022-11-19T00:08:55.728Z,38.10
2022-11-19T00:11:24.706Z,36.37
2022-11-19T00:13:51.777Z,38.60
2022-11-19T00:16:20.211Z,32.10
2022-11-19T00:18:47.291Z,29.70
2022-11-19T00:21:14.367Z,26.03
2022-11-19T00:23:41.429Z,25.53
2022-11-19T00:26:09.356Z,27.17
2022-11-19T00:28:36.675Z,23.30
2022-11-19T00:31:04.935Z,26.50
2022-11-19T00:33:33.797Z,29.87
2022-11-19T00:36:01.337Z,31.60
2022-11-19T00:38:28.942Z,23.97
2022-11-19T00:40:56.042Z,30.67
2022-11-19T00:43:23.313Z,30.93
2022-11-19T00:45:50.406Z,33.57
2022-11-19T00:48:17.510Z,24.63
2022-11-19T00:50:45.947Z,23.47
2022-11-19T00:53:13.047Z,21.27
2022-11-19T00:55:40.112Z,25.13
2022-11-19T00:58:07.248Z,23.70
2022-11-19T01:00:34.335Z,22.43
2022-11-19T01:03:01.459Z,26.20
2022-11-19T01:05:28.563Z,21.03
2022-11-19T01:07:57.275Z,22.70
2022-11-19T01:10:24.377Z,22.60
2022-11-19T01:12:51.459Z,23.27
2022-11-19T01:15:18.554Z,23.23
2022-11-19T01:17:45.624Z,23.53
2022-11-19T01:20:12.919Z,27.63
2022-11-19T01:22:40.031Z,22.10
2022-11-19T01:25:09.117Z,24.97
2022-11-19T01:27:36.229Z,23.50
2022-11-19T01:30:03.454Z,29.27
2022-11-19T01:32:30.567Z,24.47
2022-11-19T01:34:57.657Z,26.17
2022-11-19T01:37:24.929Z,24.00
2022-11-19T01:39:52.013Z,30.90
2022-11-19T01:42:21.157Z,17.20
2022-11-19T01:44:59.897Z,24.70
2022-11-19T01:47:26.993Z,20.20
2022-11-19T01:49:54.088Z,22.10
2022-11-19T01:52:21.188Z,24.40
2022-11-19T01:54:51.183Z,17.17
2022-11-19T01:57:18.745Z,17.60
2022-11-19T01:59:48.433Z,18.53
2022-11-19T02:02:15.915Z,21.53
2022-11-19T02:04:43.516Z,22.80
2022-11-19T02:07:11.651Z,21.70
2022-11-19T02:09:39.219Z,18.43
2022-11-19T02:12:13.863Z,18.87
2022-11-19T02:14:55.947Z,23.30
2022-11-19T02:17:30.987Z,20.60
2022-11-19T02:20:08.444Z,20.87
2022-11-19T02:22:47.022Z,20.20
2022-11-19T02:25:20.523Z,18.37
2022-11-19T02:28:17.561Z,17.87
2022-11-19T02:30:48.919Z,15.10
2022-11-19T02:33:18.714Z,16.07
2022-11-19T02:35:48.695Z,20.20
2022-11-19T02:38:26.524Z,16.70
2022-11-19T02:40:56.651Z,19.30
2022-11-19T02:43:26.878Z,20.03
2022-11-19T02:45:57.981Z,18.90
2022-11-19T02:48:28.100Z,15.60
2022-11-19T02:50:58.149Z,20.40
2022-11-19T02:53:25.221Z,23.00
2022-11-19T02:55:52.477Z,16.13
2022-11-19T02:58:22.139Z,23.50
2022-11-19T03:00:50.797Z,17.80
2022-11-19T03:03:20.477Z,18.20
2022-11-19T03:05:50.038Z,17.20
2022-11-19T03:08:17.198Z,16.40
2022-11-19T03:10:48.057Z,25.10
2022-11-19T03:13:17.327Z,23.77
2022-11-19T03:15:46.319Z,17.83
2022-11-19T03:18:15.113Z,28.53
2022-11-19T03:20:46.936Z,24.43
2022-11-19T03:23:17.679Z,25.30
2022-11-19T03:25:45.642Z,20.27
2022-11-19T03:28:13.721Z,19.67
2022-11-19T03:30:42.653Z,23.77
2022-11-19T03:33:12.183Z,25.47
2022-11-19T03:35:41.301Z,23.90
2022-11-19T03:38:13.665Z,22.23
2022-11-19T03:40:42.057Z,31.17
2022-11-19T03:43:10.582Z,25.30
2022-11-19T03:45:39.746Z,25.83
2022-11-19T03:48:07.710Z,30.83
2022-11-19T03:50:38.406Z,29.57
2022-11-19T03:53:05.675Z,29.03
2022-11-19T03:55:35.669Z,30.10
2022-11-19T03:58:04.007Z,26.77
2022-11-19T04:00:31.139Z,28.40
2022-11-19T04:02:58.286Z,29.73
2022-11-19T04:05:25.461Z,26.40
2022-11-19T04:07:52.575Z,33.00
2022-11-19T04:10:19.674Z,33.80
2022-11-19T04:12:48.166Z,30.27
2022-11-19T04:15:15.824Z,34.57
2022-11-19T04:17:42.905Z,34.97
2022-11-19T04:20:10.292Z,36.60
2022-11-19T04:22:37.359Z,32.97
2022-11-19T04:25:04.754Z,29.30
2022-11-19T04:27:31.870Z,34.87
2022-11-19T04:30:00.300Z,30.67
2022-11-19T04:32:27.554Z,34.20
2022-11-19T04:34:54.659Z,40.97
2022-11-19T04:37:21.777Z,35.90
2022-11-19T04:39:48.842Z,34.90
2022-11-19T04:42:15.937Z,39.13
2022-11-19T04:44:43.024Z,36.47
2022-11-19T04:47:11.444Z,36.93
2022-11-19T04:49:38.541Z,38.27
2022-11-19T04:52:05.902Z,40.07
2022-11-19T04:54:33.007Z,40.87
2022-11-19T04:57:00.123Z,41.70
2022-11-19T04:59:27.204Z,35.17
2022-11-19T05:01:54.312Z,33.60
2022-11-19T05:04:22.766Z,46.17
2022-11-19T05:06:49.870Z,47.70
2022-11-19T05:09:17.264Z,37.63
2022-11-19T05:11:44.590Z,40.10
2022-11-19T05:14:11.686Z,41.60
2022-11-19T05:16:38.766Z,39.83
2022-11-19T05:19:06.019Z,39.10
2022-11-19T05:21:34.469Z,39.50
2022-11-19T05:24:01.643Z,42.40
2022-11-19T05:26:28.719Z,35.53
2022-11-19T05:28:55.824Z,45.10
2022-11-19T05:31:22.927Z,39.97
2022-11-19T05:33:50.069Z,39.47
2022-11-19T05:36:17.139Z,44.93
2022-11-19T05:38:45.547Z,43.53
2022-11-19T05:41:12.637Z,41.37
2022-11-19T05:43:39.711Z,36.87
2022-11-19T05:46:06.811Z,36.93
2022-11-19T05:48:33.909Z,44.63
2022-11-19T05:51:01.009Z,42.40
2022-11-19T05:53:28.101Z,40.10
2022-11-19T05:55:56.536Z,40.93
2022-11-19T05:58:23.676Z,33.60
2022-11-19T06:00:54.138Z,37.90
2022-11-19T06:03:21.230Z,43.23
2022-11-19T06:05:48.325Z,44.20
2022-11-19T06:08:15.407Z,43.53
2022-11-19T06:10:42.530Z,40.67
2022-11-19T06:13:11.179Z,41.63
2022-11-19T06:15:38.277Z,37.27
2022-11-19T06:18:05.612Z,35.70
2022-11-19T06:20:32.729Z,35.53
2022-11-19T06:22:59.928Z,38.23
2022-11-19T06:25:27.023Z,39.00
2022-11-19T06:27:54.083Z,36.77
2022-11-19T06:30:22.529Z,34.30
2022-11-19T06:32:49.613Z,36.90
2022-11-19T06:35:16.767Z,33.13
2022-11-19T06:37:43.836Z,37.13
2022-11-19T06:40:11.562Z,40.33
2022-11-19T06:42:38.644Z,35.10
2022-11-19T06:45:06.796Z,41.50
2022-11-19T06:47:35.230Z,32.20
2022-11-19T06:50:02.333Z,32.23
2022-11-19T06:52:29.456Z,39.50
2022-11-19T06:54:56.549Z,44.03
2022-11-19T06:57:23.668Z,40.93
2022-11-19T06:59:50.787Z,32.97
2022-11-19T07:02:21.440Z,33.43
2022-11-19T07:04:50.240Z,39.40
2022-11-19T07:07:17.371Z,35.50
2022-11-19T07:09:44.495Z,39.77
2022-11-19T07:12:11.579Z,45.33
2022-11-19T07:14:38.662Z,38.30
2022-11-19T07:17:06.044Z,40.23
2022-11-19T07:19:33.146Z,40.77
2022-11-19T07:22:01.606Z,37.50
2022-11-19T07:24:28.697Z,32.60
2022-11-19T07:26:55.860Z,44.00
2022-11-19T07:29:23.340Z,38.97
2022-11-19T07:31:50.589Z,41.63
2022-11-19T07:34:17.990Z,39.00
2022-11-19T07:36:45.125Z,36.40
2022-11-19T07:39:13.671Z,38.03
2022-11-19T07:41:40.827Z,42.60
2022-11-19T07:44:07.938Z,40.83
2022-11-19T07:46:35.037Z,39.67
2022-11-19T07:49:02.264Z,42.33
2022-11-19T07:51:29.391Z,41.83
2022-11-19T07:53:56.725Z,43.07
2022-11-19T07:56:25.160Z,40.43
2022-11-19T07:58:52.602Z,47.47
2022-11-19T08:01:21.081Z,44.43
2022-11-19T08:03:53.396Z,39.17
2022-11-19T08:06:24.091Z,42.33
2022-11-19T08:08:51.227Z,55.30
2022-11-19T08:11:18.423Z,36.23
2022-11-19T08:13:46.872Z,45.57
2022-11-19T08:16:14.755Z,41.77
2022-11-19T08:18:44.978Z,43.47
2022-11-19T08:21:12.386Z,36.93
2022-11-19T08:23:39.706Z,38.20
2022-11-19T08:26:07.422Z,43.13
2022-11-19T08:28:34.646Z,42.03
2022-11-19T08:31:07.343Z,45.33
2022-11-19T08:33:34.765Z,38.33
2022-11-19T08:36:01.983Z,50.93
2022-11-19T08:38:29.092Z,44.83
2022-11-19T08:40:56.497Z,45.67
2022-11-19T08:43:23.569Z,39.97
2022-11-19T08:45:53.535Z,42.63
2022-11-19T08:48:21.973Z,46.33
2022-11-19T08:50:49.213Z,45.67
2022-11-19T08:53:16.349Z,40.13
2022-11-19T08:55:43.449Z,45.57
2022-11-19T08:58:11.955Z,43.50
2022-11-19T09:00:39.086Z,36.70
2022-11-19T09:03:06.204Z,42.57
2022-11-19T09:05:34.699Z,41.77
2022-11-19T09:08:01.785Z,32.73
2022-11-19T09:10:28.882Z,50.13
2022-11-19T09:12:55.951Z,36.27
2022-11-19T09:15:23.072Z,40.20
2022-11-19T09:17:50.173Z,44.73
2022-11-19T09:20:17.510Z,36.40
2022-11-19T09:22:46.000Z,39.77
2022-11-19T09:25:13.121Z,39.47
2022-11-19T09:27:40.287Z,40.77
2022-11-19T09:30:08.533Z,37.27
2022-11-19T09:32:35.670Z,33.47
2022-11-19T09:35:02.797Z,38.10
2022-11-19T09:37:29.892Z,36.37
2022-11-19T09:39:58.322Z,40.50
2022-11-19T09:42:31.919Z,35.20
2022-11-19T09:45:08.126Z,38.90
2022-11-19T09:47:40.820Z,44.43
2022-11-19T09:50:14.171Z,33.77
2022-11-19T09:52:43.369Z,33.10
2022-11-19T09:55:15.269Z,34.90
2022-11-19T09:57:46.536Z,33.00
2022-11-19T10:00:17.197Z,35.33
2022-11-19T10:02:44.605Z,33.97
2022-11-19T10:05:14.358Z,36.57
2022-11-19T10:07:44.153Z,29.50
2022-11-19T10:10:24.623Z,31.70
2022-11-19T10:13:03.485Z,37.33
2022-11-19T10:15:37.393Z,36.50
2022-11-19T10:18:08.299Z,31.50
2022-11-19T10:20:45.174Z,31.27
2022-11-19T10:23:15.179Z,33.60
2022-11-19T10:25:45.076Z,30.93
2022-11-19T10:28:14.041Z,31.10
2022-11-19T10:30:42.770Z,34.70
2022-11-19T10:33:13.719Z,36.83
2022-11-19T10:35:43.049Z,37.23
2022-11-19T10:38:14.909Z,33.00
2022-11-19T10:40:45.507Z,32.33
2022-11-19T10:43:22.107Z,34.73
2022-11-19T10:45:50.497Z,34.37
2022-11-19T10:48:20.666Z,34.27
2022-11-19T10:50:47.768Z,33.30
2022-11-19T10:53:16.206Z,29.23
2022-11-19T10:55:48.898Z,28.60
2022-11-19T10:58:23.265Z,32.30
2022-11-19T11:00:51.196Z,32.13
2022-11-19T11:03:22.205Z,30.20
2022-11-19T11:05:56.995Z,31.03
2022-11-19T11:08:24.065Z,29.77
2022-11-19T11:10:52.813Z,31.13
2022-11-19T11:13:27.046Z,26.97
2022-11-19T11:15:54.433Z,32.30
2022-11-19T11:18:26.032Z,31.33
2022-11-19T11:20:53.179Z,31.70
2022-11-19T11:23:22.746Z,39.30
2022-11-19T11:25:57.193Z,29.53
2022-11-19T11:28:24.471Z,36.27
2022-11-19T11:30:52.872Z,30.37
2022-11-19T11:33:26.503Z,29.37
2022-11-19T11:35:55.587Z,28.87
2022-11-19T11:38:23.595Z,33.90
2022-11-19T11:41:30.073Z,34.90
2022-11-19T11:43:47.863Z,36.00
2022-11-19T11:46:14.990Z,32.33
2022-11-19T11:48:44.230Z,38.20
2022-11-19T11:51:25.338Z,33.27
2022-11-19T11:54:03.811Z,31.83
2022-11-19T11:56:32.270Z,30.77
2022-11-19T11:59:14.175Z,31.40
2022-11-19T12:01:41.456Z,31.00
2022-11-19T12:04:12.398Z,28.13
2022-11-19T12:06:43.917Z,29.37
2022-11-19T12:09:15.369Z,29.40
2022-11-19T12:11:47.646Z,30.23
2022-11-19T12:14:17.067Z,30.03
2022-11-19T12:16:54.306Z,27.27
2022-11-19T12:19:32.420Z,28.87
2022-11-19T12:22:04.023Z,29.27
2022-11-19T12:24:38.789Z,29.20
2022-11-19T12:27:13.406Z,31.43
2022-11-19T12:29:45.775Z,28.43
2022-11-19T12:32:19.126Z,27.20
2022-11-19T12:34:52.694Z,27.40
2022-11-19T12:37:28.590Z,27.20
2022-11-19T12:39:59.307Z,28.97
2022-11-19T12:42:34.362Z,27.00
2022-11-19T12:45:03.642Z,28.13
2022-11-19T12:47:44.576Z,28.00
2022-11-19T12:50:19.294Z,36.90
2022-11-19T12:53:07.636Z,29.77
2022-11-19T12:55:38.088Z,25.73
2022-11-19T12:58:10.953Z,26.63
2022-11-19T13:00:41.224Z,28.33
2022-11-19T13:03:12.047Z,31.57
2022-11-19T13:05:43.185Z,28.53
2022-11-19T13:08:14.275Z,26.43
2022-11-19T13:10:45.124Z,26.57
2022-11-19T13:13:16.052Z,23.47
2022-11-19T13:15:44.955Z,25.93
2022-11-19T13:18:14.371Z,22.23
2022-11-19T13:20:45.175Z,25.80
2022-11-19T13:23:15.956Z,22.77
2022-11-19T13:25:44.980Z,22.50
2022-11-19T13:28:20.968Z,25.47
2022-11-19T13:30:49.027Z,22.17
2022-11-19T13:33:18.466Z,23.23
2022-11-19T13:35:47.779Z,21.20
2022-11-19T13:38:19.156Z,18.80
2022-11-19T13:40:47.806Z,26.13
2022-11-19T13:43:32.130Z,21.77
2022-11-19T13:46:04.286Z,26.47
2022-11-19T13:48:33.656Z,22.07
2022-11-19T13:51:03.307Z,24.30
2022-11-19T13:53:33.177Z,23.40
2022-11-19T13:56:00.571Z,24.07
2022-11-19T13:58:32.380Z,27.70
2022-11-19T14:01:12.401Z,24.90
2022-11-19T14:03:43.479Z,20.53
2022-11-19T14:06:20.036Z,24.87
2022-11-19T14:09:01.772Z,20.97
2022-11-19T14:11:37.779Z,21.67
2022-11-19T14:14:14.878Z,26.93
2022-11-19T14:16:46.279Z,27.87
2022-11-19T14:19:14.676Z,29.30
2022-11-19T14:21:43.627Z,26.37
2022-11-19T14:24:25.704Z,23.67
2022-11-19T14:27:11.654Z,19.80
2022-11-19T14:29:53.477Z,26.03
2022-11-19T14:32:28.598Z,22.40
2022-11-19T14:35:09.100Z,22.60
2022-11-19T14:37:39.312Z,19.73
2022-11-19T14:40:09.318Z,23.27
2022-11-19T14:42:36.450Z,20.80
2022-11-19T14:48:21.097Z,20.47
2022-11-19T14:50:57.704Z,19.83
2022-11-19T14:53:25.747Z,21.30
2022-11-19T14:55:53.731Z,20.20
2022-11-19T14:58:22.306Z,20.10
2022-11-19T15:00:49.560Z,22.50
2022-11-19T15:03:21.887Z,19.30
2022-11-19T15:05:50.434Z,19.37
2022-11-19T15:08:43.368Z,20.27
2022-11-19T15:11:11.765Z,20.87
2022-11-19T15:13:39.779Z,17.57
2022-11-19T15:16:08.974Z,19.70
2022-11-19T15:18:44.821Z,19.10
2022-11-19T15:21:19.094Z,22.00
2022-11-19T15:23:50.826Z,21.07
2022-11-19T15:26:20.899Z,20.70
2022-11-19T15:28:54.466Z,21.23
2022-11-19T15:31:26.426Z,19.97
2022-11-19T15:34:02.429Z,20.33
2022-11-19T15:36:32.859Z,19.40
2022-11-19T15:39:01.949Z,21.37
2022-11-19T15:41:30.758Z,19.30
2022-11-19T15:43:59.850Z,19.80
2022-11-19T15:46:30.934Z,20.50
2022-11-19T15:49:00.825Z,17.17
2022-11-19T15:51:29.201Z,18.80
2022-11-19T15:54:01.633Z,22.47
2022-11-19T15:56:30.110Z,21.70
2022-11-19T15:58:57.249Z,18.40
2022-11-19T16:01:24.661Z,18.30
2022-11-19T16:03:53.203Z,18.70
2022-11-19T16:06:21.505Z,19.13
2022-11-19T16:08:51.701Z,19.97
2022-11-19T16:11:22.189Z,20.83
2022-11-19T16:13:52.527Z,16.90
2022-11-19T16:16:23.314Z,24.77
2022-11-19T16:18:51.649Z,17.43
2022-11-19T16:21:21.401Z,18.37
2022-11-19T16:23:48.666Z,18.03
2022-11-19T16:26:15.889Z,21.40
2022-11-19T16:28:44.385Z,18.03
2022-11-19T16:31:12.258Z,19.30
2022-11-19T16:33:40.461Z,18.47
2022-11-19T16:36:12.059Z,16.47
2022-11-19T16:38:40.453Z,20.17
2022-11-19T16:41:07.749Z,22.83
2022-11-19T16:43:35.499Z,22.80
2022-11-19T16:46:05.196Z,22.03
2022-11-19T16:48:59.349Z,18.83
2022-11-19T16:51:31.405Z,22.10
2022-11-19T16:53:58.873Z,21.80
2022-11-19T16:56:26.251Z,17.50
2022-11-19T16:58:58.190Z,22.63
2022-11-19T17:01:29.651Z,21.67
2022-11-19T17:03:59.175Z,22.10
2022-11-19T17:06:26.272Z,19.20
2022-11-19T17:08:57.326Z,19.30
2022-11-19T17:11:25.603Z,19.23
2022-11-19T17:13:52.734Z,20.77
2022-11-19T17:16:23.037Z,19.93
2022-11-19T17:18:51.906Z,19.37
2022-11-19T17:21:24.033Z,19.60
2022-11-19T17:23:51.536Z,20.57
2022-11-19T17:26:20.098Z,19.93
2022-11-19T17:28:49.125Z,16.80
2022-11-19T17:31:17.016Z,18.83
2022-11-19T17:33:49.848Z,17.20
2022-11-19T17:36:18.333Z,20.10
2022-11-19T17:38:45.424Z,16.87
2022-11-19T17:41:14.215Z,18.90
2022-11-19T17:43:41.375Z,19.90
2022-11-19T17:46:08.592Z,20.67
2022-11-19T17:48:35.694Z,17.10
2022-11-19T17:51:02.776Z,18.10
2022-11-19T17:53:31.187Z,19.83
2022-11-19T17:55:58.724Z,24.43
2022-11-19T17:58:25.828Z,18.30
2022-11-19T18:00:52.898Z,21.30
2022-11-19T18:03:19.990Z,19.10
2022-11-19T18:05:47.907Z,22.27
2022-11-19T18:08:15.110Z,18.33
2022-11-19T18:10:44.590Z,19.60
2022-11-19T18:13:12.713Z,19.23
2022-11-19T18:15:39.822Z,22.63
2022-11-19T18:18:06.937Z,19.30
2022-11-19T18:20:34.033Z,22.07
2022-11-19T18:23:01.113Z,16.97
2022-11-19T18:25:28.338Z,20.70
2022-11-19T18:27:56.762Z,17.57
2022-11-19T18:30:23.879Z,19.53
2022-11-19T18:32:51.001Z,21.03
2022-11-19T18:35:19.378Z,21.30
2022-11-19T18:37:46.477Z,20.47
2022-11-19T18:40:14.493Z,23.60
2022-11-19T18:42:41.663Z,17.00
2022-11-19T18:45:10.478Z,20.93
2022-11-19T18:47:37.572Z,26.87
2022-11-19T18:50:04.785Z,21.07
2022-11-19T18:52:31.906Z,21.53
2022-11-19T18:54:58.972Z,22.07
2022-11-19T18:57:26.095Z,21.30
2022-11-19T18:59:53.505Z,23.53
2022-11-19T19:02:21.995Z,19.47
2022-11-19T19:04:50.979Z,20.40
2022-11-19T19:07:18.480Z,21.13
2022-11-19T19:09:45.604Z,18.60
2022-11-19T19:12:14.011Z,23.97
2022-11-19T19:14:41.431Z,21.40
2022-11-19T19:17:08.525Z,22.70
2022-11-19T19:19:37.287Z,25.53
2022-11-19T19:22:04.545Z,18.97
2022-11-19T19:24:31.697Z,22.50
2022-11-19T19:26:58.784Z,27.83
2022-11-19T19:29:25.960Z,23.97
2022-11-19T19:31:53.102Z,21.83
2022-11-19T19:34:20.239Z,22.47
2022-11-19T19:36:52.970Z,21.50
2022-11-19T19:39:20.891Z,32.37
2022-11-19T19:41:48.363Z,22.67
2022-11-19T19:44:15.558Z,19.70
2022-11-19T19:46:42.735Z,22.77
2022-11-19T19:49:09.806Z,23.57
2022-11-19T19:51:36.904Z,22.20
2022-11-19T19:54:05.661Z,21.10
2022-11-19T19:56:33.566Z,23.53
2022-11-19T19:59:01.390Z,26.77
2022-11-19T20:01:29.299Z,22.33
2022-11-19T20:03:59.909Z,25.30
2022-11-19T20:06:27.026Z,26.67
2022-11-19T20:08:54.169Z,24.83
2022-11-19T20:11:24.335Z,22.37
2022-11-19T20:13:51.512Z,24.13
2022-11-19T20:16:19.524Z,19.90
2022-11-19T20:18:47.119Z,25.87
2022-11-19T20:21:15.156Z,24.27
2022-11-19T20:23:42.413Z,23.93
2022-11-19T20:26:11.145Z,20.27
2022-11-19T20:28:39.635Z,24.27
2022-11-19T20:31:08.217Z,23.23
2022-11-19T20:33:35.651Z,26.63
2022-11-19T20:36:02.843Z,27.83
2022-11-19T20:38:30.903Z,24.20
2022-11-19T20:40:58.667Z,24.37
2022-11-19T20:43:25.953Z,23.37
2022-11-19T20:45:54.397Z,22.40
2022-11-19T20:48:21.522Z,17.50
2022-11-19T20:50:48.640Z,21.13
2022-11-19T20:53:15.726Z,22.57
2022-11-19T20:56:03.900Z,18.47
2022-11-19T20:58:29.930Z,18.03
2022-11-19T21:01:02.238Z,19.03
2022-11-19T21:03:29.818Z,20.93
2022-11-19T21:05:57.538Z,21.07
2022-11-19T21:08:25.006Z,21.77
2022-11-19T21:10:56.275Z,21.37
2022-11-19T21:13:23.380Z,16.90
2022-11-19T21:15:50.452Z,13.40
2022-11-19T21:18:22.168Z,19.40
2022-11-19T21:20:51.536Z,14.87
2022-11-19T21:23:18.948Z,13.50
2022-11-19T21:25:46.223Z,17.50
2022-11-19T21:28:13.359Z,13.10
2022-11-19T21:30:40.624Z,15.10
2022-11-19T21:33:07.754Z,13.80
2022-11-19T21:35:39.546Z,14.70
2022-11-19T21:38:11.870Z,14.43
2022-11-19T21:40:39.718Z,15.87
2022-11-19T21:43:07.416Z,16.60
2022-11-19T21:45:34.520Z,16.17
2022-11-19T21:48:01.675Z,17.20
2022-11-19T21:50:28.817Z,16.60
2022-11-19T21:52:57.294Z,21.57
2022-11-19T21:55:24.369Z,19.23
2022-11-19T21:57:51.496Z,15.30
2022-11-19T22:00:18.667Z,16.90
2022-11-19T22:02:45.790Z,15.83
2022-11-19T22:05:12.880Z,16.07
2022-11-19T22:07:40.115Z,17.27
2022-11-19T22:10:09.059Z,17.50
2022-11-19T22:12:36.165Z,17.33
2022-11-19T22:15:03.253Z,17.70
2022-11-19T22:17:33.003Z,21.03
2022-11-19T22:20:00.261Z,18.73
2022-11-19T22:22:27.489Z,17.70
2022-11-19T22:24:54.575Z,18.13
2022-11-19T22:27:23.041Z,18.80
2022-11-19T22:29:50.137Z,21.53
2022-11-19T22:32:17.245Z,23.67
2022-11-19T22:34:44.370Z,21.17
2022-11-19T22:37:11.488Z,22.80
2022-11-19T22:39:38.560Z,23.90
2022-11-19T22:42:05.747Z,20.90
2022-11-19T22:44:34.181Z,19.83
2022-11-19T22:47:01.295Z,19.53
2022-11-19T22:49:28.373Z,20.57
2022-11-19T22:51:55.497Z,19.30
2022-11-19T22:54:22.561Z,20.83
2022-11-19T22:56:49.639Z,27.27
2022-11-19T22:59:16.713Z,21.20
2022-11-19T23:01:45.164Z,18.87
2022-11-19T23:04:14.144Z,21.90
2022-11-19T23:06:41.297Z,23.03
2022-11-19T23:09:08.442Z,20.47
2022-11-19T23:11:35.553Z,22.53
2022-11-19T23:14:02.634Z,18.43
2022-11-19T23:16:29.711Z,21.97
2022-11-19T23:18:58.160Z,26.53
2022-11-19T23:21:26.220Z,21.90
2022-11-19T23:23:53.511Z,23.27
2022-11-19T23:26:21.401Z,22.83
2022-11-19T23:28:48.552Z,21.67
2022-11-19T23:31:16.455Z,25.43
2022-11-19T23:33:44.046Z,23.00
2022-11-19T23:36:14.014Z,25.03
2022-11-19T23:38:41.223Z,25.13
2022-11-19T23:41:09.554Z,24.70
2022-11-19T23:43:36.984Z,22.53
2022-11-19T23:46:04.984Z,23.03
2022-11-19T23:48:32.137Z,19.70
2022-11-19T23:51:00.723Z,23.03
2022-11-19T23:53:29.197Z,22.30
2022-11-19T23:55:56.320Z,26.93
2022-11-19T23:58:23.406Z,34.00
